createdAt,value
2022-09-18T00:01:26.083Z,72.34
2022-09-18T00:03:58.624Z,72.34
2022-09-18T00:06:33.883Z,72.46
2022-09-18T00:09:02.284Z,72.60
2022-09-18T00:11:35.441Z,71.95
2022-09-18T00:14:02.406Z,72.40
2022-09-18T00:16:28.908Z,71.73
2022-09-18T00:18:56.370Z,72.11
2022-09-18T00:21:25.348Z,72.33
2022-09-18T00:23:57.817Z,72.27
2022-09-18T00:26:25.767Z,72.66
2022-09-18T00:28:53.644Z,72.44
2022-09-18T00:31:25.710Z,72.11
2022-09-18T00:33:53.694Z,72.22
2022-09-18T00:36:21.125Z,72.31
2022-09-18T00:38:48.915Z,72.65
2022-09-18T00:41:26.566Z,72.73
2022-09-18T00:44:01.449Z,72.83
2022-09-18T00:46:35.539Z,72.62
2022-09-18T00:49:19.315Z,72.60
2022-09-18T00:51:50.416Z,72.41
2022-09-18T00:54:28.487Z,72.49
2022-09-18T00:57:01.706Z,72.22
2022-09-18T00:59:32.334Z,72.17
2022-09-18T01:02:00.305Z,72.75
2022-09-18T01:04:29.252Z,72.46
2022-09-18T01:07:13.672Z,72.67
2022-09-18T01:10:18.575Z,72.74
2022-09-18T01:12:58.242Z,73.16
2022-09-18T01:16:00.542Z,72.95
2022-09-18T01:19:05.864Z,72.85
2022-09-18T01:21:56.742Z,73.09
2022-09-18T01:24:58.558Z,72.97
2022-09-18T01:27:46.883Z,72.80
2022-09-18T01:30:13.619Z,73.01
2022-09-18T01:32:51.194Z,72.86
2022-09-18T01:35:41.198Z,72.59
2022-09-18T01:38:15.055Z,72.94
2022-09-18T01:40:51.448Z,73.57
2022-09-18T01:43:21.782Z,73.54
2022-09-18T01:45:54.544Z,73.32
2022-09-18T01:48:30.604Z,73.50
2022-09-18T01:51:22.614Z,73.85
2022-09-18T01:53:56.475Z,73.56
2022-09-18T01:56:32.588Z,73.71
2022-09-18T01:59:11.252Z,73.69
2022-09-18T02:01:43.559Z,73.32
2022-09-18T02:04:31.920Z,73.02
2022-09-18T02:07:07.695Z,73.61
2022-09-18T02:09:35.125Z,73.71
2022-09-18T02:12:06.014Z,73.12
2022-09-18T02:14:40.795Z,73.21
2022-09-18T02:17:27.470Z,73.47
2022-09-18T02:20:10.062Z,73.96
2022-09-18T02:22:38.865Z,74.23
2022-09-18T02:25:12.230Z,74.08
2022-09-18T02:27:41.900Z,73.68
2022-09-18T02:30:10.410Z,73.95
2022-09-18T02:32:40.020Z,73.16
2022-09-18T02:35:10.070Z,73.09
2022-09-18T02:38:02.221Z,73.16
2022-09-18T02:41:18.228Z,73.35
2022-09-18T02:44:15.127Z,73.88
2022-09-18T02:47:05.128Z,73.88
2022-09-18T02:49:48.757Z,74.28
2022-09-18T02:53:03.911Z,74.36
2022-09-18T02:55:45.645Z,73.93
2022-09-18T02:58:36.263Z,73.83
2022-09-18T03:01:05.914Z,73.69
2022-09-18T03:03:37.937Z,73.84
2022-09-18T03:06:06.717Z,73.27
2022-09-18T03:08:33.955Z,73.58
2022-09-18T03:11:00.491Z,73.89
2022-09-18T03:13:27.458Z,74.97
2022-09-18T03:15:55.891Z,74.94
2022-09-18T03:18:23.022Z,74.82
2022-09-18T03:20:49.517Z,74.92
2022-09-18T03:23:16.136Z,74.76
2022-09-18T03:25:42.579Z,74.73
2022-09-18T03:28:09.214Z,75.35
2022-09-18T03:30:36.165Z,74.76
2022-09-18T03:33:02.776Z,74.72
2022-09-18T03:35:29.278Z,74.49
2022-09-18T03:37:56.042Z,74.28
2022-09-18T03:40:22.608Z,74.21
2022-09-18T03:42:50.665Z,74.42
2022-09-18T03:45:17.455Z,74.11
2022-09-18T03:47:44.693Z,74.42
2022-09-18T03:50:11.221Z,73.97
2022-09-18T03:52:37.822Z,73.42
2022-09-18T03:55:04.639Z,73.81
2022-09-18T03:57:31.094Z,73.80
2022-09-18T03:59:57.551Z,74.00
2022-09-18T04:02:23.988Z,74.40
2022-09-18T04:04:50.453Z,74.61
2022-09-18T04:07:18.125Z,74.78
2022-09-18T04:09:45.024Z,74.58
2022-09-18T04:12:11.628Z,74.50
2022-09-18T04:14:38.114Z,74.37
2022-09-18T04:17:04.772Z,74.15
2022-09-18T04:19:31.257Z,74.66
2022-09-18T04:21:57.703Z,74.06
2022-09-18T04:24:24.245Z,73.94
2022-09-18T04:26:50.797Z,73.63
2022-09-18T04:29:17.229Z,73.81
2022-09-18T04:31:43.789Z,73.81
2022-09-18T04:34:10.291Z,73.50
2022-09-18T04:36:36.754Z,74.05
2022-09-18T04:39:03.828Z,74.70
2022-09-18T04:41:30.627Z,74.60
2022-09-18T04:43:57.118Z,74.40
2022-09-18T04:46:23.572Z,73.90
2022-09-18T04:48:50.450Z,73.70
2022-09-18T04:51:17.396Z,73.92
2022-09-18T04:53:43.877Z,73.66
2022-09-18T04:56:10.347Z,74.32
2022-09-18T04:58:36.900Z,74.11
2022-09-18T05:01:03.577Z,73.58
2022-09-18T05:03:30.098Z,73.77
2022-09-18T05:05:56.647Z,73.49
2022-09-18T05:08:23.436Z,73.61
2022-09-18T05:10:49.926Z,73.51
2022-09-18T05:13:16.693Z,73.42
2022-09-18T05:15:43.250Z,73.57
2022-09-18T05:18:12.108Z,73.74
2022-09-18T05:20:39.038Z,74.08
2022-09-18T05:23:07.020Z,74.23
2022-09-18T05:25:33.867Z,74.07
2022-09-18T05:28:03.404Z,74.55
2022-09-18T05:30:31.143Z,74.30
2022-09-18T05:33:03.690Z,73.95
2022-09-18T05:35:33.579Z,73.89
2022-09-18T05:38:01.143Z,74.35
2022-09-18T05:40:33.191Z,74.00
2022-09-18T05:42:59.936Z,73.71
2022-09-18T05:45:26.594Z,74.13
2022-09-18T05:48:05.617Z,73.82
2022-09-18T05:50:33.578Z,74.27
2022-09-18T05:53:13.620Z,73.78
2022-09-18T05:55:40.761Z,73.91
2022-09-18T05:58:13.680Z,73.87
2022-09-18T06:00:40.645Z,74.55
2022-09-18T06:03:11.567Z,73.96
2022-09-18T06:05:39.073Z,74.37
2022-09-18T06:08:10.198Z,74.13
2022-09-18T06:10:40.292Z,74.37
2022-09-18T06:13:12.040Z,74.22
2022-09-18T06:15:39.632Z,73.78
2022-09-18T06:18:09.041Z,73.60
2022-09-18T06:20:35.843Z,73.72
2022-09-18T06:23:03.341Z,73.54
2022-09-18T06:25:30.979Z,73.54
2022-09-18T06:28:00.191Z,73.66
2022-09-18T06:30:31.956Z,73.56
2022-09-18T06:33:07.455Z,73.03
2022-09-18T06:35:36.003Z,73.56
2022-09-18T06:38:04.770Z,73.58
2022-09-18T06:40:33.157Z,73.16
2022-09-18T06:43:01.787Z,73.40
2022-09-18T06:45:30.831Z,72.86
2022-09-18T06:48:04.460Z,73.27
2022-09-18T06:50:31.558Z,73.39
2022-09-18T06:53:06.707Z,73.50
2022-09-18T06:55:35.332Z,73.67
2022-09-18T06:58:01.877Z,73.93
2022-09-18T07:00:28.462Z,73.23
2022-09-18T07:03:00.978Z,73.30
2022-09-18T07:05:32.520Z,73.98
2022-09-18T07:07:59.837Z,74.08
2022-09-18T07:10:27.032Z,73.44
2022-09-18T07:12:58.722Z,73.53
2022-09-18T07:15:26.850Z,73.45
2022-09-18T07:18:01.640Z,73.67
2022-09-18T07:20:29.465Z,73.88
2022-09-18T07:23:01.644Z,74.28
2022-09-18T07:25:31.310Z,74.95
2022-09-18T07:28:07.772Z,74.66
2022-09-18T07:30:35.997Z,75.42
2022-09-18T07:33:04.782Z,75.18
2022-09-18T07:35:32.843Z,75.35
2022-09-18T07:38:01.253Z,75.00
2022-09-18T07:40:29.572Z,74.38
2022-09-18T07:43:07.085Z,74.38
2022-09-18T07:45:34.934Z,73.89
2022-09-18T07:48:04.302Z,73.85
2022-09-18T07:50:32.034Z,73.92
2022-09-18T07:53:05.330Z,74.10
2022-09-18T07:55:36.103Z,74.13
2022-09-18T07:58:06.898Z,73.63
2022-09-18T08:00:36.502Z,72.96
2022-09-18T08:03:05.899Z,73.02
2022-09-18T08:05:33.108Z,73.08
2022-09-18T08:08:08.773Z,73.07
2022-09-18T08:10:36.627Z,72.82
2022-09-18T08:13:03.871Z,72.94
2022-09-18T08:15:31.629Z,72.77
2022-09-18T08:17:58.253Z,71.99
2022-09-18T08:20:24.695Z,72.64
2022-09-18T08:22:51.249Z,72.34
2022-09-18T08:25:17.835Z,72.74
2022-09-18T08:27:44.415Z,72.65
2022-09-18T08:30:14.595Z,72.91
2022-09-18T08:32:41.964Z,73.19
2022-09-18T08:35:10.854Z,73.74
2022-09-18T08:37:37.507Z,73.62
2022-09-18T08:40:05.457Z,73.67
2022-09-18T08:42:51.297Z,73.72
2022-09-18T08:45:47.520Z,73.94
2022-09-18T08:48:24.171Z,74.04
2022-09-18T08:51:06.628Z,74.84
2022-09-18T08:53:45.327Z,74.38
2022-09-18T08:56:20.334Z,74.16
2022-09-18T08:59:07.390Z,74.57
2022-09-18T09:01:57.630Z,73.25
2022-09-18T09:04:29.987Z,73.81
2022-09-18T09:07:24.606Z,74.37
2022-09-18T09:10:24.973Z,73.52
2022-09-18T09:13:05.618Z,73.13
2022-09-18T09:15:50.331Z,73.20
2022-09-18T09:18:19.388Z,72.94
2022-09-18T09:20:55.588Z,72.03
2022-09-18T09:23:37.192Z,71.49
2022-09-18T09:26:16.164Z,71.86
2022-09-18T09:29:19.319Z,71.48
2022-09-18T09:31:56.928Z,71.80
2022-09-18T09:34:49.011Z,71.81
2022-09-18T09:37:23.894Z,71.24
2022-09-18T09:40:10.325Z,71.04
2022-09-18T09:42:58.275Z,71.18
2022-09-18T09:45:33.202Z,71.67
2022-09-18T09:48:30.104Z,71.92
2022-09-18T09:51:43.210Z,72.09
2022-09-18T09:54:12.669Z,72.40
2022-09-18T09:56:58.368Z,72.39
2022-09-18T09:59:47.517Z,71.69
2022-09-18T10:02:37.284Z,72.12
2022-09-18T10:06:10.203Z,71.75
2022-09-18T10:09:12.951Z,71.48
2022-09-18T10:11:49.106Z,72.47
2022-09-18T10:14:25.195Z,72.38
2022-09-18T10:16:56.468Z,72.22
2022-09-18T10:19:34.738Z,72.12
2022-09-18T10:22:07.415Z,71.80
2022-09-18T10:25:01.663Z,71.50
2022-09-18T10:27:28.157Z,71.57
2022-09-18T10:29:55.171Z,71.35
2022-09-18T10:32:41.506Z,71.78
2022-09-18T10:35:29.727Z,71.87
2022-09-18T10:37:58.158Z,71.85
2022-09-18T10:40:39.570Z,71.31
2022-09-18T10:43:18.850Z,70.82
2022-09-18T10:45:54.409Z,71.08
2022-09-18T10:48:26.121Z,71.19
2022-09-18T10:50:59.991Z,71.68
2022-09-18T10:53:32.746Z,71.95
2022-09-18T10:56:17.646Z,72.14
2022-09-18T10:58:44.977Z,72.03
2022-09-18T11:01:13.789Z,71.66
2022-09-18T11:03:59.424Z,71.54
2022-09-18T11:06:29.879Z,71.22
2022-09-18T11:09:00.913Z,71.92
2022-09-18T11:11:34.059Z,71.56
2022-09-18T11:14:14.298Z,71.82
2022-09-18T11:16:49.538Z,70.95
2022-09-18T11:19:33.568Z,71.21
2022-09-18T11:22:06.716Z,71.81
2022-09-18T11:24:37.798Z,71.00
2022-09-18T11:27:23.618Z,71.34
2022-09-18T11:29:50.090Z,71.56
2022-09-18T11:32:33.687Z,71.54
2022-09-18T11:35:05.581Z,72.13
2022-09-18T11:37:37.418Z,72.23
2022-09-18T11:40:15.158Z,72.11
2022-09-18T11:42:44.845Z,72.26
2022-09-18T11:45:48.787Z,72.76
2022-09-18T11:48:40.925Z,73.23
2022-09-18T11:51:20.504Z,73.56
2022-09-18T11:53:55.208Z,72.97
2022-09-18T11:56:41.848Z,73.32
2022-09-18T11:59:27.018Z,73.56
2022-09-18T12:02:09.185Z,73.46
2022-09-18T12:04:49.140Z,73.20
2022-09-18T12:07:40.611Z,72.65
2022-09-18T12:10:54.619Z,72.70
2022-09-18T12:13:45.275Z,73.23
2022-09-18T12:16:25.722Z,73.03
2022-09-18T12:19:10.001Z,73.65
2022-09-18T12:21:52.331Z,73.22
2022-09-18T12:24:18.939Z,73.87
2022-09-18T12:27:25.998Z,73.62
2022-09-18T12:30:08.026Z,73.17
2022-09-18T12:33:15.829Z,72.59
2022-09-18T12:36:04.921Z,72.95
2022-09-18T12:39:10.098Z,72.78
2022-09-18T12:42:14.113Z,72.65
2022-09-18T12:45:20.454Z,73.16
2022-09-18T12:48:05.461Z,73.04
2022-09-18T12:51:00.381Z,73.15
2022-09-18T12:53:49.589Z,73.56
2022-09-18T12:56:27.814Z,73.16
2022-09-18T12:58:57.272Z,73.06
2022-09-18T13:01:46.103Z,73.48
2022-09-18T13:04:33.208Z,73.34
2022-09-18T13:07:20.011Z,74.50
2022-09-18T13:10:05.058Z,76.89
2022-09-18T13:12:55.163Z,80.03
2022-09-18T13:15:28.895Z,79.60
2022-09-18T13:18:18.226Z,79.52
2022-09-18T13:20:46.562Z,78.86
2022-09-18T13:23:28.587Z,82.05
2022-09-18T13:25:57.547Z,83.96
2022-09-18T13:28:25.786Z,84.96
2022-09-18T13:31:35.682Z,86.76
2022-09-18T13:34:13.776Z,86.60
2022-09-18T13:36:44.455Z,85.42
2022-09-18T13:39:35.509Z,85.77
2022-09-18T13:42:07.614Z,86.18
2022-09-18T13:44:37.556Z,85.72
2022-09-18T13:47:14.968Z,85.84
2022-09-18T13:49:54.237Z,86.57
2022-09-18T13:52:27.543Z,86.60
2022-09-18T13:55:20.019Z,87.00
2022-09-18T13:57:46.483Z,86.16
2022-09-18T14:00:21.761Z,85.74
2022-09-18T14:03:14.233Z,85.29
2022-09-18T14:05:42.879Z,85.92
2022-09-18T14:08:30.063Z,86.99
2022-09-18T14:11:14.969Z,90.05
2022-09-18T14:13:55.415Z,86.92
2022-09-18T14:16:23.839Z,86.31
2022-09-18T14:19:25.403Z,87.47
2022-09-18T14:21:52.314Z,85.99
2022-09-18T14:24:44.946Z,86.58
2022-09-18T14:27:53.441Z,87.33
2022-09-18T14:30:24.536Z,86.66
2022-09-18T14:33:09.530Z,86.03
2022-09-18T14:36:07.310Z,87.37
2022-09-18T14:38:36.423Z,85.99
2022-09-18T14:41:15.878Z,85.78
2022-09-18T14:44:02.876Z,85.61
2022-09-18T14:46:32.282Z,88.79
2022-09-18T14:48:59.839Z,85.47
2022-09-18T14:51:35.065Z,83.84
2022-09-18T14:54:23.546Z,84.28
2022-09-18T14:56:53.660Z,83.25
2022-09-18T14:59:20.932Z,81.98
2022-09-18T15:01:48.192Z,82.47
2022-09-18T15:04:20.291Z,81.83
2022-09-18T15:06:51.255Z,81.95
2022-09-18T15:09:30.719Z,82.61
2022-09-18T15:12:04.784Z,80.88
2022-09-18T15:14:42.662Z,81.32
2022-09-18T15:17:27.300Z,81.42
2022-09-18T15:20:17.004Z,80.61
2022-09-18T15:22:43.612Z,79.36
2022-09-18T15:25:15.319Z,79.17
2022-09-18T15:27:44.706Z,78.48
2022-09-18T15:30:21.613Z,78.57
2022-09-18T15:33:12.663Z,78.85
2022-09-18T15:35:39.151Z,78.26
2022-09-18T15:38:16.065Z,77.91
2022-09-18T15:40:43.559Z,78.13
2022-09-18T15:43:40.905Z,77.99
2022-09-18T15:46:24.571Z,77.75
2022-09-18T15:48:51.935Z,77.04
2022-09-18T15:51:25.493Z,77.27
2022-09-18T15:54:13.117Z,77.85
2022-09-18T15:56:50.290Z,79.29
2022-09-18T15:59:30.955Z,79.00
2022-09-18T16:02:07.966Z,78.50
2022-09-18T16:04:36.011Z,77.85
2022-09-18T16:07:21.342Z,77.17
2022-09-18T16:09:49.439Z,76.97
2022-09-18T16:12:30.781Z,76.78
2022-09-18T16:15:25.421Z,76.47
2022-09-18T16:18:25.403Z,75.36
2022-09-18T16:20:53.309Z,74.82
2022-09-18T16:23:35.824Z,75.22
2022-09-18T16:26:33.277Z,74.97
2022-09-18T16:29:14.666Z,74.96
2022-09-18T16:31:41.178Z,74.62
2022-09-18T16:34:22.731Z,74.14
2022-09-18T16:36:50.260Z,74.11
2022-09-18T16:39:20.982Z,74.52
2022-09-18T16:41:48.399Z,74.23
2022-09-18T16:44:16.933Z,73.80
2022-09-18T16:46:49.077Z,73.82
2022-09-18T16:49:21.626Z,73.97
2022-09-18T16:51:48.142Z,74.16
2022-09-18T16:54:14.642Z,73.61
2022-09-18T16:56:51.518Z,73.92
2022-09-18T16:59:21.659Z,73.75
2022-09-18T17:02:03.008Z,74.25
2022-09-18T17:04:31.182Z,74.47
2022-09-18T17:06:57.779Z,74.85
2022-09-18T17:09:24.758Z,74.39
2022-09-18T17:11:53.012Z,74.25
2022-09-18T17:14:20.520Z,73.82
2022-09-18T17:16:47.416Z,73.67
2022-09-18T17:19:14.318Z,73.82
2022-09-18T17:21:41.659Z,73.46
2022-09-18T17:24:08.993Z,73.50
2022-09-18T17:26:40.000Z,73.85
2022-09-18T17:29:08.496Z,74.34
2022-09-18T17:31:34.991Z,74.73
2022-09-18T17:34:02.114Z,74.37
2022-09-18T17:36:28.884Z,74.21
2022-09-18T17:38:57.542Z,73.81
2022-09-18T17:41:25.954Z,74.03
2022-09-18T17:43:53.528Z,74.11
2022-09-18T17:46:20.804Z,74.46
2022-09-18T17:48:47.674Z,74.22
2022-09-18T17:51:18.287Z,74.03
2022-09-18T17:53:47.816Z,73.96
2022-09-18T17:56:18.985Z,73.98
2022-09-18T17:58:46.365Z,72.83
2022-09-18T18:01:17.471Z,73.40
2022-09-18T18:03:44.714Z,73.16
2022-09-18T18:06:11.198Z,73.32
2022-09-18T18:08:38.214Z,72.84
2022-09-18T18:11:09.576Z,72.63
2022-09-18T18:13:38.271Z,72.59
2022-09-18T18:16:23.036Z,72.69
2022-09-18T18:18:53.595Z,72.56
2022-09-18T18:21:20.802Z,72.33
2022-09-18T18:23:47.317Z,72.23
2022-09-18T18:26:14.066Z,72.24
2022-09-18T18:28:41.827Z,72.33
2022-09-18T18:31:13.543Z,72.96
2022-09-18T18:33:44.980Z,72.73
2022-09-18T18:36:23.853Z,73.06
2022-09-18T18:38:54.887Z,73.52
2022-09-18T18:41:24.066Z,73.61
2022-09-18T18:43:56.982Z,73.40
2022-09-18T18:46:26.880Z,72.94
2022-09-18T18:49:03.960Z,73.00
2022-09-18T18:51:37.102Z,73.35
2022-09-18T18:54:06.297Z,73.62
2022-09-18T18:56:37.491Z,73.30
2022-09-18T18:59:08.660Z,73.60
2022-09-18T19:01:35.723Z,73.71
2022-09-18T19:04:09.191Z,73.39
2022-09-18T19:06:39.346Z,73.33
2022-09-18T19:09:20.098Z,73.25
2022-09-18T19:11:49.863Z,73.39
2022-09-18T19:14:22.082Z,73.62
2022-09-18T19:16:51.727Z,73.68
2022-09-18T19:19:21.602Z,73.85
2022-09-18T19:21:48.287Z,73.91
2022-09-18T19:24:16.547Z,73.80
2022-09-18T19:26:43.195Z,73.96
2022-09-18T19:29:14.861Z,74.39
2022-09-18T19:31:44.097Z,74.60
2022-09-18T19:34:19.533Z,74.33
2022-09-18T19:36:49.897Z,75.06
2022-09-18T19:39:18.908Z,75.18
2022-09-18T19:42:12.053Z,74.94
2022-09-18T19:44:53.336Z,75.14
2022-09-18T19:47:37.715Z,74.96
2022-09-18T19:50:05.882Z,75.14
2022-09-18T19:52:32.499Z,75.65
2022-09-18T19:54:59.615Z,75.75
2022-09-18T19:57:28.217Z,75.45
2022-09-18T19:59:56.950Z,75.25
2022-09-18T20:02:25.251Z,75.16
2022-09-18T20:04:51.750Z,75.28
2022-09-18T20:07:18.525Z,75.37
2022-09-18T20:09:44.978Z,75.02
2022-09-18T20:12:12.629Z,75.56
2022-09-18T20:14:39.164Z,75.29
2022-09-18T20:17:05.771Z,75.45
2022-09-18T20:19:32.458Z,75.70
2022-09-18T20:22:02.875Z,75.88
2022-09-18T20:24:31.690Z,76.12
2022-09-18T20:26:59.918Z,76.13
2022-09-18T20:29:27.376Z,75.99
2022-09-18T20:31:53.932Z,75.74
2022-09-18T20:34:24.610Z,75.64
2022-09-18T20:36:54.908Z,75.07
2022-09-18T20:39:21.760Z,75.39
2022-09-18T20:41:50.633Z,75.01
2022-09-18T20:44:17.907Z,74.98
2022-09-18T20:46:44.418Z,75.53
2022-09-18T20:49:12.815Z,75.48
2022-09-18T20:51:39.261Z,75.75
2022-09-18T20:54:09.392Z,75.36
2022-09-18T20:56:42.006Z,75.61
2022-09-18T20:59:14.280Z,75.23
2022-09-18T21:01:43.642Z,75.24
2022-09-18T21:04:17.720Z,75.27
2022-09-18T21:06:48.697Z,75.40
2022-09-18T21:09:15.606Z,75.49
2022-09-18T21:11:44.772Z,75.22
2022-09-18T21:14:17.775Z,75.07
2022-09-18T21:16:44.844Z,75.66
2022-09-18T21:19:14.522Z,75.13
2022-09-18T21:21:41.399Z,75.34
2022-09-18T21:24:08.731Z,74.88
2022-09-18T21:27:02.970Z,75.13
2022-09-18T21:29:29.869Z,75.75
2022-09-18T21:31:59.816Z,75.72
2022-09-18T21:34:31.127Z,75.69
2022-09-18T21:37:03.946Z,75.72
2022-09-18T21:39:32.407Z,75.62
2022-09-18T21:42:01.226Z,75.38
2022-09-18T21:44:31.620Z,75.12
2022-09-18T21:47:03.041Z,74.64
2022-09-18T21:49:30.650Z,74.46
2022-09-18T21:52:02.727Z,74.58
2022-09-18T21:54:29.287Z,74.29
2022-09-18T21:56:56.394Z,74.71
2022-09-18T21:59:26.102Z,75.00
2022-09-18T22:01:54.596Z,74.82
2022-09-18T22:04:28.889Z,74.79
2022-09-18T22:06:58.189Z,74.79
2022-09-18T22:09:32.286Z,74.60
2022-09-18T22:12:01.184Z,75.00
2022-09-18T22:14:32.150Z,74.88
2022-09-18T22:17:01.981Z,75.19
2022-09-18T22:19:29.565Z,75.26
2022-09-18T22:21:56.750Z,75.36
2022-09-18T22:24:25.537Z,75.57
2022-09-18T22:26:59.859Z,75.09
2022-09-18T22:29:30.381Z,75.18
2022-09-18T22:31:59.352Z,75.74
2022-09-18T22:34:29.501Z,75.90
2022-09-18T22:36:58.408Z,75.84
2022-09-18T22:39:25.165Z,75.64
2022-09-18T22:41:51.998Z,75.54
2022-09-18T22:44:22.704Z,75.90
2022-09-18T22:46:54.590Z,75.98
2022-09-18T22:49:23.162Z,75.90
2022-09-18T22:51:50.618Z,75.79
2022-09-18T22:54:23.463Z,75.59
2022-09-18T22:56:51.629Z,75.53
2022-09-18T22:59:22.500Z,75.80
2022-09-18T23:02:03.493Z,75.80
2022-09-18T23:04:33.396Z,75.45
2022-09-18T23:07:01.240Z,75.62
2022-09-18T23:09:29.053Z,75.67
2022-09-18T23:11:58.122Z,75.62
2022-09-18T23:14:28.863Z,75.53
2022-09-18T23:16:57.298Z,75.50
2022-09-18T23:19:30.219Z,75.36
2022-09-18T23:21:57.148Z,75.34
2022-09-18T23:24:24.739Z,75.48
2022-09-18T23:26:55.190Z,75.31
2022-09-18T23:29:23.959Z,75.50
2022-09-18T23:31:53.376Z,75.41
2022-09-18T23:34:23.970Z,75.59
2022-09-18T23:36:54.642Z,75.26
2022-09-18T23:39:26.856Z,75.47
2022-09-18T23:41:53.321Z,75.49
2022-09-18T23:44:22.558Z,75.13
2022-09-18T23:46:51.221Z,75.42
2022-09-18T23:49:23.541Z,75.33
2022-09-18T23:51:53.737Z,75.34
2022-09-18T23:54:30.043Z,75.44
2022-09-18T23:56:56.536Z,76.12
2022-09-18T23:59:25.326Z,76.13
